CheckWX is a tool to help pilots better visualize weather data.  It is not intended as a substitute for an official pre-flight weather briefing.

15:49:29 UTC

KSDL TAF
Scottsdale Airport
Scottsdale, Arizona, USA
KSDL 191143Z 1912/2012 VRB03KT P6SM BKN120 FM192100 14012KT P6SM VCSH SCT060 BKN080 PROB30 1921/1924 21012G22KT 6SM SHRA OVC060 FM200300 16012KT 6SM -SHRA SCT025 BKN035 OVC070 PROB30 2003/2007 5SM SHRA BKN025 FM200700 15012KT P6SM VCSH SCT030 BKN070 OVC150

Nov-19@
12:00 UTC

Nov-19 @ 12:00 UTC

Nov-19@
21:00 UTC

Nov-19 @ 21:00 UTC

KSDL 191143Z 1912/2012 VRB03KT P6SM BKN120
Wind
  • Variable at 3 KTS
Cloud Levels
  • Broken at 12,000' AGL

Nov-19@
21:00 UTC

Nov-19 @ 21:00 UTC

Nov-20@
00:00 UTC

Nov-20 @ 00:00 UTC

PROB30 1921/1924 21012G22KT 6SM SHRA OVC060

Probable - 30% Likelihood

Probable - 30% Likelihood during this time.

Wind
  • 210° at 12 KTS
  • {Gusting to 22 KTS
Conditions
Rain
Cloud Levels
  • Overcast at 6,000' AGL

Nov-19@
21:00 UTC

Nov-19 @ 21:00 UTC

Nov-20@
03:00 UTC

Nov-20 @ 03:00 UTC

FM192100 14012KT P6SM VCSH SCT060 BKN080

From

From Standard forecast or significant change

Wind
  • 140° at 12 KTS
Cloud Levels
  • Scattered at 6,000' AGL
  • Broken at 8,000' AGL

Nov-20@
03:00 UTC

Nov-20 @ 03:00 UTC

Nov-20@
07:00 UTC

Nov-20 @ 07:00 UTC

FM200300 16012KT 6SM -SHRA SCT025 BKN035 OVC070

From

From Standard forecast or significant change

Wind
  • 160° at 12 KTS
Conditions
Light Rain
Cloud Levels
  • Scattered at 2,500' AGL
  • Broken at 3,500' AGL
  • Overcast at 7,000' AGL

Nov-20@
03:00 UTC

Nov-20 @ 03:00 UTC

Nov-20@
07:00 UTC

Nov-20 @ 07:00 UTC

PROB30 2003/2007 5SM SHRA BKN025

Probable - 30% Likelihood

Probable - 30% Likelihood during this time.

Conditions
Rain
Cloud Levels
  • Broken at 2,500' AGL

Nov-20@
07:00 UTC

Nov-20 @ 07:00 UTC

Nov-20@
12:00 UTC

Nov-20 @ 12:00 UTC

FM200700 15012KT P6SM VCSH SCT030 BKN070 OVC150

From

From Standard forecast or significant change

Wind
  • 150° at 12 KTS
Cloud Levels
  • Scattered at 3,000' AGL
  • Broken at 7,000' AGL
  • Overcast at 15,000' AGL